BKH weather

Barking Sands Airport
Kekaha, Hawaii, United States

Public forecast

Using degrees Fahrenheit for public forecast. Weather courtesy of forecast.io.

METAR (pilot weather report)

Retrieved 2019/04/24 01:56 UTC (33 minutes ago):

PHBK 240156Z AUTO 23007KT 10SM OVC060 A3005 RMK AO2 SLP179

TAF (pilot weather forecast)

Forecast is more than 12 hours old.

Closest forecast is Lihue Airport, 25.0 nm (46.3 km) E. Retrieved 2019/04/23 00:42 UTC (1 day ago):

TAF PHLI 232340Z 2400/2424 05015KT P6SM VCSH FEW020 SCT035 FM240500 04012KT P6SM VCSH SCT020 SCT035